Los Angeles, California
Traffic Map
Current Weather Conditions
Los Angeles, California
Clear
Clear
11°
Feels Like: 11°
Wind Chill: 11° Ceiling: Unl
Heat Index: 11° Visibility: 10mi
Dew Point: Wind: 0mph
Humidity: 80% Direction: ° ()
Pressure: 30.11in Gusts: 0mph
Raw Report DataKCQT 180647Z AUTO 00000KT 10SM CLR 11/08 A3011 RMK AO2 SLP195 T01110078
Traffic Incident Summary
Active as of:
Severity:
Category:
InformationThere was an issue retrieving the traffic information for this location. Please try a different location or try again shortly.
Advertisements
Track Severe Weather on mobile